Time;durP1;ratioP1;P1;durP2;ratioP2;P2;SDS_P1;SDS_P2;PMS_P1;PMS_P2;Temp;Humidity;BMP_temperature;BMP_pressure;BME280_temperature;BME280_humidity;BME280_pressure;Samples;Min_cycle;Max_cycle;Signal;HPM_P1;HPM_P2
2023/04/26 00:01:59;;;;;;;1.90;1.80;;;8.70;99.90;;;8.74;nan;100786.22;5011168;28;20641;-68
2023/04/26 00:04:27;;;;;;;4.50;1.47;;;8.70;99.90;;;8.71;nan;100791.59;5013031;28;21439;-69
2023/04/26 00:06:55;;;;;;;2.93;1.97;;;8.70;99.90;;;8.65;nan;100791.97;5012273;28;21003;-67
2023/04/26 00:09:22;;;;;;;1.50;1.40;;;8.60;99.90;;;8.59;nan;100789.75;5011610;28;21531;-69
2023/04/26 00:11:49;;;;;;;1.47;1.37;;;8.60;99.90;;;8.55;nan;100789.13;5012265;28;20634;-69
2023/04/26 00:14:16;;;;;;;1.70;1.60;;;8.50;99.90;;;8.49;nan;100786.06;5007808;28;20626;-68
2023/04/26 00:16:43;;;;;;;1.37;1.37;;;8.40;99.90;;;8.42;nan;100784.75;4997064;28;20638;-68
2023/04/26 00:19:10;;;;;;;1.90;1.80;;;8.40;99.90;;;8.34;nan;100780.03;4996657;28;21093;-68
2023/04/26 00:21:38;;;;;;;3.03;1.70;;;8.30;99.90;;;8.30;nan;100791.53;5012659;28;20707;-70
2023/04/26 00:24:06;;;;;;;1.77;1.67;;;8.30;99.90;;;8.28;nan;100797.75;5010582;28;20680;-69
2023/04/26 00:26:34;;;;;;;1.00;1.00;;;8.20;99.90;;;8.22;nan;100796.31;5012416;28;20626;-68
2023/04/26 00:29:03;;;;;;;1.70;1.60;;;8.20;99.90;;;8.17;nan;100789.72;5011507;28;20658;-69
2023/04/26 00:31:30;;;;;;;1.97;1.70;;;8.10;99.90;;;8.13;nan;100794.28;5011051;28;20641;-68
2023/04/26 00:33:57;;;;;;;1.90;1.80;;;8.10;99.90;;;8.07;nan;100793.78;5012263;28;21213;-69
2023/04/26 00:36:25;;;;;;;2.17;1.93;;;8.00;99.90;;;8.04;nan;100793.97;5010445;28;20634;-70
2023/04/26 00:38:52;;;;;;;2.20;2.10;;;8.00;99.90;;;7.97;nan;100790.03;5010853;28;20649;-70
2023/04/26 00:41:19;;;;;;;2.50;2.30;;;7.90;99.90;;;7.90;nan;100792.16;5009769;28;20629;-68
2023/04/26 00:43:46;;;;;;;2.20;2.00;;;7.90;99.90;;;7.82;nan;100784.81;5000900;28;20642;-68
2023/04/26 00:46:13;;;;;;;2.87;2.40;;;7.80;99.90;;;7.76;nan;100787.78;5008497;28;20633;-69
2023/04/26 00:48:41;;;;;;;2.87;2.10;;;7.70;99.90;;;7.70;nan;100795.94;5010676;28;20653;-69
2023/04/26 00:51:08;;;;;;;2.33;2.23;;;7.70;99.90;;;7.62;nan;100792.91;5009519;28;20618;-68
2023/04/26 00:53:35;;;;;;;2.27;2.10;;;7.60;99.90;;;7.56;nan;100801.06;5008209;28;20634;-68
2023/04/26 00:56:05;;;;;;;1.60;1.50;;;7.50;99.90;;;7.54;nan;100797.72;5009150;28;20687;-69
2023/04/26 00:58:32;;;;;;;4.43;2.30;;;7.50;99.90;;;7.51;nan;100797.91;5011708;28;20653;-70
2023/04/26 01:00:59;;;;;;;2.38;2.17;;;7.40;99.90;;;7.41;nan;100796.72;5011987;28;20633;-68
2023/04/26 01:03:26;;;;;;;2.33;2.13;;;7.40;99.90;;;7.42;nan;100803.63;5011534;28;20217;-70
2023/04/26 01:05:54;;;;;;;4.77;2.90;;;7.30;99.90;;;7.42;nan;100801.00;5011319;28;20715;-68
2023/04/26 01:08:22;;;;;;;3.03;2.20;;;7.30;99.90;;;7.45;nan;100802.59;5004042;28;20635;-69
2023/04/26 01:10:49;;;;;;;2.40;1.90;;;7.40;99.90;;;7.48;nan;100800.66;5009601;28;20641;-69
2023/04/26 01:13:16;;;;;;;1.40;1.40;;;7.40;99.90;;;7.47;nan;100799.00;5010897;28;21258;-70
2023/04/26 01:15:47;;;;;;;2.13;1.90;;;7.40;99.90;;;7.45;nan;100798.22;5012174;28;21209;-69
2023/04/26 01:18:14;;;;;;;1.63;1.60;;;7.40;99.90;;;7.44;nan;100798.31;5021655;28;20635;-68
2023/04/26 01:20:41;;;;;;;1.95;1.67;;;7.40;99.90;;;7.38;nan;100799.50;5012491;28;20675;-68
2023/04/26 01:23:10;;;;;;;2.20;1.67;;;7.30;99.90;;;7.38;nan;100801.28;5012148;28;20210;-68
2023/04/26 01:25:37;;;;;;;2.30;2.10;;;7.30;99.90;;;7.31;nan;100798.19;5007575;28;20678;-69
2023/04/26 01:28:04;;;;;;;2.30;2.10;;;7.30;99.90;;;7.28;nan;100798.38;5011951;28;20624;-71
2023/04/26 01:30:31;;;;;;;2.80;1.80;;;7.30;99.90;;;7.24;nan;100798.63;5010504;28;20715;-69
2023/04/26 01:32:58;;;;;;;3.20;2.70;;;7.20;99.90;;;7.19;nan;100798.03;5011965;28;20621;-70
2023/04/26 01:35:26;;;;;;;3.07;2.33;;;7.20;99.90;;;7.13;nan;100794.03;5010960;28;20648;-69
2023/04/26 01:37:52;;;;;;;3.40;2.63;;;7.10;99.90;;;7.06;nan;100790.06;5006088;28;20640;-69
2023/04/26 01:40:20;;;;;;;4.60;2.87;;;7.00;99.90;;;6.97;nan;100791.41;4991996;28;20719;-69
2023/04/26 01:42:47;;;;;;;1.90;1.80;;;6.90;99.90;;;6.95;nan;100793.25;4990949;28;21043;-68
2023/04/26 01:45:13;;;;;;;3.35;2.55;;;6.90;99.90;;;6.88;nan;100794.50;5007177;28;20658;-68
2023/04/26 01:47:40;;;;;;;2.40;2.30;;;6.80;99.90;;;6.85;nan;100788.66;5010562;28;20198;-69
2023/04/26 01:50:09;;;;;;;4.20;2.70;;;6.80;99.90;;;6.78;nan;100789.91;5010765;28;20638;-69
2023/04/26 01:52:36;;;;;;;2.33;2.13;;;6.70;99.90;;;6.72;nan;100790.22;5011338;28;20668;-69
2023/04/26 01:55:03;;;;;;;2.55;1.80;;;6.70;99.90;;;6.73;nan;100786.72;5011414;28;20629;-69
2023/04/26 01:57:30;;;;;;;2.50;1.50;;;6.60;99.90;;;6.75;nan;100790.06;5008839;28;20214;-68
2023/04/26 01:59:58;;;;;;;2.23;1.90;;;6.70;99.90;;;6.73;nan;100792.72;5010811;28;21166;-69
2023/04/26 02:02:25;;;;;;;1.80;1.70;;;6.70;99.90;;;6.68;nan;100796.50;5008307;28;20737;-69
2023/04/26 02:04:52;;;;;;;1.90;1.80;;;6.60;99.90;;;6.68;nan;100794.75;5010894;28;20662;-69
2023/04/26 02:07:19;;;;;;;2.50;1.65;;;6.60;99.90;;;6.70;nan;100799.84;5009161;28;20629;-70
2023/04/26 02:09:46;;;;;;;2.40;1.90;;;6.60;99.90;;;6.76;nan;100800.34;5012128;28;20227;-69
2023/04/26 02:12:13;;;;;;;2.10;1.97;;;6.70;99.90;;;6.79;nan;100796.78;5010378;28;20641;-69
2023/04/26 02:14:40;;;;;;;1.13;1.13;;;6.70;99.90;;;6.79;nan;100796.78;5011889;28;20633;-69
2023/04/26 02:17:07;;;;;;;3.00;1.90;;;6.70;99.90;;;6.81;nan;100797.53;5011303;28;20672;-69
2023/04/26 02:19:34;;;;;;;1.80;1.70;;;6.80;99.90;;;6.83;nan;100806.91;5046728;22;20229;-67
2023/04/26 02:22:05;;;;;;;1.73;1.63;;;6.80;99.90;;;6.80;nan;100795.84;5030170;28;21204;-66
2023/04/26 02:24:32;;;;;;;1.73;1.63;;;6.80;99.90;;;6.74;nan;100801.34;5030031;28;20621;-67
2023/04/26 02:27:02;;;;;;;1.90;1.80;;;6.70;99.90;;;6.73;nan;100795.31;5030983;28;20201;-69
2023/04/26 02:29:30;;;;;;;1.20;1.20;;;6.70;99.90;;;6.72;nan;100804.03;5029597;28;20718;-69
2023/04/26 02:32:10;;;;;;;1.80;1.70;;;6.70;99.90;;;6.74;nan;100802.19;5030902;28;20624;-68
2023/04/26 02:34:37;;;;;;;2.07;1.50;;;6.70;99.90;;;6.78;nan;100795.09;5030090;28;20642;-67
2023/04/26 02:37:04;;;;;;;1.60;1.50;;;6.80;99.90;;;6.77;nan;100801.22;5029926;28;21261;-66
2023/04/26 02:39:31;;;;;;;1.63;1.53;;;6.70;99.90;;;6.76;nan;100802.09;5030786;28;21261;-67
2023/04/26 02:41:58;;;;;;;1.47;1.47;;;6.70;99.90;;;6.73;nan;100804.88;5029851;28;20690;-69
2023/04/26 02:44:29;;;;;;;1.70;1.60;;;6.70;99.90;;;6.73;nan;100795.31;5025820;28;21000;-67
2023/04/26 02:46:57;;;;;;;1.67;1.57;;;6.70;99.90;;;6.73;nan;100804.88;5029109;28;20637;-67
2023/04/26 02:49:24;;;;;;;3.13;1.85;;;6.70;99.90;;;6.74;nan;100804.78;5029549;28;20660;-67
2023/04/26 02:51:51;;;;;;;1.80;1.70;;;6.70;99.90;;;6.78;nan;100800.28;5021876;28;20364;-67
2023/04/26 02:54:18;;;;;;;1.73;1.63;;;6.70;99.90;;;6.77;nan;100796.84;5029630;28;20641;-67
2023/04/26 02:56:45;;;;;;;1.60;1.57;;;6.70;99.90;;;6.77;nan;100801.22;5028817;28;20694;-68
2023/04/26 02:59:12;;;;;;;3.47;1.47;;;6.70;99.90;;;6.76;nan;100802.09;5019181;28;20665;-67
2023/04/26 03:01:39;;;;;;;1.80;1.70;;;6.70;99.90;;;6.75;nan;100806.44;5027284;28;20644;-67
2023/04/26 03:04:06;;;;;;;5.40;1.50;;;6.70;99.90;;;6.72;nan;100804.03;5029188;28;20632;-67
2023/04/26 03:06:34;;;;;;;2.10;1.90;;;6.70;99.90;;;6.71;nan;100806.69;5031957;28;20718;-67
2023/04/26 03:09:01;;;;;;;3.83;2.20;;;6.70;99.90;;;6.66;nan;100803.53;5032598;28;21275;-67
2023/04/26 03:11:28;;;;;;;2.50;2.30;;;6.70;99.90;;;6.65;nan;100801.84;5031349;28;20635;-67
2023/04/26 03:13:55;;;;;;;1.47;1.40;;;6.70;99.90;;;6.61;nan;100798.59;5020852;28;20616;-67
2023/04/26 03:16:22;;;;;;;1.73;1.63;;;6.60;99.90;;;6.56;nan;100800.56;5029143;28;20701;-68
2023/04/26 03:18:49;;;;;;;3.83;2.37;;;6.60;99.90;;;6.51;nan;100797.41;5032118;28;20639;-68
2023/04/26 03:21:17;;;;;;;2.43;2.23;;;6.50;99.90;;;6.49;nan;100800.97;5028560;28;20987;-68
2023/04/26 03:23:44;;;;;;;3.15;2.25;;;6.50;99.90;;;6.45;nan;100794.28;5033459;28;20612;-69
2023/04/26 03:26:11;;;;;;;3.53;2.13;;;6.40;99.90;;;6.38;nan;100793.78;5030076;28;20234;-66
2023/04/26 03:28:41;;;;;;;2.92;2.63;;;6.40;99.90;;;6.37;nan;100786.91;5026699;28;20671;-67
2023/04/26 03:31:08;;;;;;;3.75;2.30;;;6.40;99.90;;;6.37;nan;100786.09;5025871;28;20264;-69
2023/04/26 03:33:35;;;;;;;3.03;2.40;;;6.30;99.90;;;6.34;nan;100792.25;5028036;28;20212;-67
2023/04/26 03:36:02;;;;;;;2.55;2.40;;;6.30;99.90;;;6.31;nan;100791.56;5032086;28;20662;-68
2023/04/26 03:38:29;;;;;;;3.10;2.78;;;6.30;99.90;;;6.30;nan;100792.50;5021472;28;20214;-67
2023/04/26 03:40:56;;;;;;;2.20;2.00;;;6.20;99.90;;;6.28;nan;100795.16;5013947;28;20222;-67
2023/04/26 03:43:23;;;;;;;3.45;2.22;;;6.30;99.90;;;6.28;nan;100793.41;5022833;28;20198;-69
2023/04/26 03:45:51;;;;;;;2.22;2.13;;;6.20;99.90;;;6.24;nan;100791.88;5031269;28;20304;-69
2023/04/26 03:48:18;;;;;;;2.50;2.30;;;6.20;99.90;;;6.23;nan;100795.41;5027959;28;20202;-68
2023/04/26 03:50:45;;;;;;;2.08;1.98;;;6.20;99.90;;;6.23;nan;100790.22;5031249;28;20224;-69
2023/04/26 03:53:12;;;;;;;2.28;2.08;;;6.20;99.90;;;6.27;nan;100796.06;5014398;28;20340;-70
2023/04/26 03:55:39;;;;;;;3.10;2.00;;;6.20;99.90;;;6.28;nan;100792.56;5032129;28;20312;-68
2023/04/26 03:58:06;;;;;;;1.85;1.75;;;6.20;99.90;;;6.31;nan;100789.81;5024970;28;20207;-69
2023/04/26 04:00:37;;;;;;;2.20;1.97;;;6.30;99.90;;;6.32;nan;100798.44;5016662;28;20237;-69
2023/04/26 04:03:05;;;;;;;2.00;1.90;;;6.30;99.90;;;6.31;nan;100788.97;5014494;28;20650;-67
2023/04/26 04:05:33;;;;;;;1.20;1.20;;;6.30;99.90;;;6.25;nan;100783.22;5009091;28;20666;-67
2023/04/26 04:08:00;;;;;;;1.80;1.25;;;6.20;99.90;;;6.20;nan;100785.19;5031529;28;20198;-67
2023/04/26 04:10:28;;;;;;;1.55;1.45;;;6.20;99.90;;;6.18;nan;100781.84;5031839;28;20252;-67
2023/04/26 04:12:55;;;;;;;1.55;1.48;;;6.20;99.90;;;6.11;nan;100788.25;5032683;28;20202;-67
2023/04/26 04:15:22;;;;;;;1.58;1.58;;;6.10;99.90;;;6.07;nan;100793.66;5031109;28;20267;-67
2023/04/26 04:17:49;;;;;;;6.22;2.28;;;6.10;99.90;;;6.04;nan;100799.00;5030235;28;20681;-67
2023/04/26 04:20:16;;;;;;;2.05;1.90;;;6.00;99.90;;;6.09;nan;100791.84;5031199;28;20242;-66
2023/04/26 04:22:43;;;;;;;1.63;1.52;;;6.10;99.90;;;6.06;nan;100797.16;5030226;28;20210;-68
2023/04/26 04:25:10;;;;;;;5.88;1.88;;;6.10;99.90;;;6.06;nan;100798.00;5031745;28;20230;-68
2023/04/26 04:27:37;;;;;;;3.65;2.20;;;6.10;99.90;;;6.14;nan;100798.47;5029326;28;20198;-69
2023/04/26 04:30:08;;;;;;;1.90;1.80;;;6.10;99.90;;;6.17;nan;100800.91;5032375;28;20236;-68
2023/04/26 04:32:38;;;;;;;2.60;2.40;;;6.20;99.90;;;6.22;nan;100808.41;5031631;28;20190;-69
2023/04/26 04:35:08;;;;;;;3.20;2.08;;;6.20;99.90;;;6.26;nan;100804.78;5030698;28;20198;-67
2023/04/26 04:37:36;;;;;;;1.60;1.52;;;6.20;99.90;;;6.33;nan;100806.13;5023958;28;20235;-70
2023/04/26 04:40:04;;;;;;;2.00;1.75;;;6.30;99.90;;;6.45;nan;100815.03;5030469;28;20226;-68
2023/04/26 04:42:31;;;;;;;1.60;1.50;;;6.40;99.90;;;6.57;nan;100815.22;5031989;28;20213;-68
2023/04/26 04:44:58;;;;;;;2.10;1.45;;;6.50;99.90;;;6.73;nan;100821.25;5029085;28;20186;-68
2023/04/26 04:47:25;;;;;;;2.85;1.35;;;6.70;99.90;;;6.89;nan;100827.31;5010117;28;20207;-68
2023/04/26 04:49:52;;;;;;;4.60;2.30;;;6.80;99.90;;;7.09;nan;100833.19;5027396;28;20218;-67
2023/04/26 04:52:22;;;;;;;1.67;1.57;;;7.00;99.90;;;7.22;nan;100837.59;5030034;28;20682;-68
2023/04/26 04:54:49;;;;;;;2.53;1.77;;;7.20;99.90;;;7.37;nan;100834.16;5030162;28;20636;-68
2023/04/26 04:57:17;;;;;;;2.30;2.10;;;7.30;99.90;;;7.52;nan;100833.31;5027108;28;20645;-68
2023/04/26 04:59:44;;;;;;;1.23;1.23;;;7.50;99.90;;;7.66;nan;100840.34;5029502;28;21047;-69
2023/04/26 05:02:11;;;;;;;0.93;0.93;;;7.60;99.90;;;7.84;nan;100837.53;5028921;28;21055;-68
2023/04/26 05:04:38;;;;;;;1.57;1.23;;;7.80;99.90;;;7.99;nan;100841.00;5030370;28;20685;-69
2023/04/26 05:07:06;;;;;;;2.20;2.10;;;7.90;99.90;;;8.19;nan;100845.03;5026724;28;20669;-66
2023/04/26 05:09:33;;;;;;;2.37;1.93;;;8.10;99.90;;;8.34;nan;100833.78;5029944;28;21261;-66
2023/04/26 05:12:01;;;;;;;2.33;2.10;;;8.30;99.90;;;8.56;nan;100835.00;5024794;28;20696;-67
2023/04/26 05:14:29;;;;;;;2.70;2.03;;;8.50;99.90;;;8.84;nan;100839.34;5029297;28;20632;-69
2023/04/26 05:16:56;;;;;;;2.00;1.90;;;8.70;99.90;;;9.08;nan;100842.22;5027740;28;20636;-67
2023/04/26 05:19:23;;;;;;;2.67;1.80;;;9.00;99.90;;;9.31;nan;100852.00;5020394;28;20668;-67
2023/04/26 05:21:52;;;;;;;3.90;1.60;;;9.20;99.90;;;9.50;nan;100849.91;5028845;28;20652;-68
2023/04/26 05:24:19;;;;;;;2.30;2.20;;;9.40;99.90;;;9.64;nan;100852.47;5018694;28;20621;-67
2023/04/26 05:26:46;;;;;;;2.00;1.90;;;9.60;99.90;;;9.89;nan;100859.53;5019427;28;20672;-66
2023/04/26 05:29:13;;;;;;;2.37;1.90;;;9.80;99.90;;;10.10;nan;100853.78;5024849;28;20656;-68
2023/04/26 05:31:40;;;;;;;2.07;1.97;;;10.00;99.90;;;10.39;nan;100859.63;5025246;28;21059;-67
2023/04/26 05:34:07;;;;;;;2.90;1.97;;;10.30;99.90;;;10.65;nan;100860.47;5025408;28;20672;-66
2023/04/26 05:36:34;;;;;;;1.80;1.70;;;10.50;99.90;;;10.93;nan;100868.91;5023793;28;20641;-67
2023/04/26 05:39:01;;;;;;;5.87;2.30;;;10.80;99.90;;;11.27;nan;100871.75;5024335;28;20668;-67
2023/04/26 05:41:28;;;;;;;2.43;2.23;;;11.10;99.90;;;11.60;nan;100869.38;5029574;28;20633;-66
2023/04/26 05:43:55;;;;;;;2.43;2.20;;;11.50;99.90;;;11.90;nan;100871.56;5029114;28;20650;-69
2023/04/26 05:46:22;;;;;;;3.00;2.60;;;11.80;99.90;;;12.13;nan;100865.44;5027522;28;21217;-68
2023/04/26 05:48:50;;;;;;;1.90;1.80;;;12.00;99.90;;;12.44;nan;100867.41;5028892;28;20624;-66
2023/04/26 05:51:17;;;;;;;4.10;2.40;;;12.30;99.90;;;12.85;nan;100864.25;5020749;28;20685;-69
2023/04/26 05:53:43;;;;;;;3.97;2.87;;;12.70;99.30;;;13.28;nan;100867.81;5022820;28;20655;-69
2023/04/26 05:56:10;;;;;;;8.33;3.00;;;13.00;98.30;;;13.70;nan;100868.78;5023177;28;20714;-68
2023/04/26 05:58:37;;;;;;;2.60;2.40;;;13.50;97.40;;;14.17;nan;100873.59;5022818;28;20648;-71
2023/04/26 06:01:05;;;;;;;2.23;2.07;;;13.90;96.50;;;14.56;nan;100880.81;5021029;28;20683;-68
2023/04/26 06:03:31;;;;;;;3.33;2.37;;;14.40;94.90;;;14.83;nan;100879.41;5028325;28;20620;-68
2023/04/26 06:05:59;;;;;;;2.70;2.50;;;14.70;93.60;;;15.08;nan;100884.19;5027606;28;20676;-67
2023/04/26 06:08:27;;;;;;;4.03;2.50;;;14.90;92.70;;;15.42;nan;100883.75;5028243;28;20662;-69
2023/04/26 06:10:54;;;;;;;2.73;2.10;;;15.30;91.40;;;15.81;nan;100883.84;5029718;28;20666;-68
2023/04/26 06:13:21;;;;;;;2.93;2.63;;;15.60;90.40;;;16.28;nan;100883.00;5027863;28;20993;-68
2023/04/26 06:15:48;;;;;;;2.33;2.17;;;16.10;88.40;;;16.84;nan;100886.53;5023459;28;20632;-66
2023/04/26 06:18:15;;;;;;;3.13;2.77;;;16.70;85.80;;;17.35;nan;100893.94;5019736;28;20640;-66
2023/04/26 06:20:42;;;;;;;5.43;2.40;;;17.20;82.90;;;17.79;nan;100890.47;5024941;28;21242;-65
2023/04/26 06:23:09;;;;;;;3.70;2.60;;;17.80;80.20;;;18.44;nan;100891.06;5015768;28;20659;-67
2023/04/26 06:25:36;;;;;;;3.47;2.47;;;18.40;77.30;;;18.90;nan;100889.84;5019434;28;20646;-67
2023/04/26 06:28:03;;;;;;;4.07;3.20;;;18.90;75.10;;;19.47;nan;100901.50;5016704;28;20728;-66
2023/04/26 06:30:30;;;;;;;3.70;2.67;;;19.40;72.70;;;19.92;nan;100904.59;5025589;28;20660;-67
2023/04/26 06:32:58;;;;;;;4.50;3.00;;;20.00;70.10;;;20.31;nan;100899.53;5027243;28;20645;-67
2023/04/26 06:35:26;;;;;;;3.37;2.70;;;20.40;68.20;;;20.56;nan;100896.69;5027938;28;20639;-67
2023/04/26 06:37:53;;;;;;;3.50;2.70;;;20.60;67.20;;;20.70;nan;100887.19;5026926;28;20641;-67
2023/04/26 06:40:20;;;;;;;3.23;3.03;;;20.90;65.70;;;20.75;nan;100884.88;5029962;28;20783;-67
2023/04/26 06:42:47;;;;;;;5.50;2.93;;;20.80;65.10;;;20.67;nan;100887.53;5033291;28;20640;-67
2023/04/26 06:45:15;;;;;;;4.93;3.03;;;20.90;64.10;;;20.78;nan;100890.66;5030303;28;20656;-67
2023/04/26 06:47:41;;;;;;;3.00;2.80;;;20.80;64.80;;;21.24;nan;100883.75;5023823;28;20713;-66
2023/04/26 06:50:09;;;;;;;5.30;2.73;;;21.10;64.10;;;22.28;nan;100889.38;5027377;28;20661;-68
2023/04/26 06:52:36;;;;;;;3.10;2.80;;;22.00;62.60;;;22.94;nan;100884.06;5030062;28;20633;-69
2023/04/26 06:55:04;;;;;;;5.60;3.30;;;22.80;60.00;;;23.38;nan;100891.22;5033608;28;21204;-67
2023/04/26 06:57:31;;;;;;;4.10;3.00;;;23.30;59.10;;;23.87;nan;100886.84;5030851;28;20667;-67
2023/04/26 06:59:58;;;;;;;4.80;3.43;;;23.90;57.60;;;24.51;nan;100890.31;5030636;28;20668;-66
2023/04/26 07:02:25;;;;;;;9.00;3.40;;;24.40;56.80;;;24.83;nan;100886.25;5032700;28;20636;-67
2023/04/26 07:04:52;;;;;;;3.10;2.90;;;24.70;55.30;;;24.76;nan;100894.22;5030894;28;20639;-67
2023/04/26 07:07:19;;;;;;;5.33;3.00;;;24.80;54.30;;;24.64;nan;100885.88;5030967;28;20664;-66
2023/04/26 07:09:46;;;;;;;2.43;2.27;;;24.80;53.90;;;24.60;nan;100889.13;5014176;28;20703;-67
2023/04/26 07:12:13;;;;;;;3.60;3.00;;;24.90;53.40;;;24.05;nan;100889.91;5032757;28;20647;-68
2023/04/26 07:14:42;;;;;;;5.67;3.20;;;24.60;52.60;;;24.41;nan;100884.47;5032057;28;20624;-65
2023/04/26 07:17:09;;;;;;;3.83;3.10;;;24.60;53.40;;;24.66;nan;100886.50;5029765;28;20620;-67
2023/04/26 07:19:36;;;;;;;3.23;2.80;;;24.80;52.40;;;25.13;nan;100884.97;5032088;28;20664;-67
2023/04/26 07:22:03;;;;;;;4.73;3.00;;;25.10;52.50;;;24.78;nan;100886.81;5031620;28;20636;-66
2023/04/26 07:24:30;;;;;;;6.50;3.27;;;24.90;52.40;;;24.88;nan;100887.28;5032321;28;20621;-66
2023/04/26 07:26:57;;;;;;;2.50;2.30;;;25.00;52.30;;;24.70;nan;100892.28;5029659;28;20730;-67
2023/04/26 07:29:25;;;;;;;3.10;2.90;;;24.90;51.70;;;24.01;nan;100895.78;5033355;28;20652;-66
2023/04/26 07:31:51;;;;;;;7.47;3.70;;;24.40;52.00;;;23.68;nan;100884.81;5032526;28;20628;-66
2023/04/26 07:34:18;;;;;;;8.97;3.70;;;23.90;52.60;;;23.66;nan;100884.19;5031789;28;20642;-67
2023/04/26 07:36:46;;;;;;;5.50;3.70;;;23.70;53.30;;;23.56;nan;100883.63;5031236;28;20625;-67
2023/04/26 07:39:14;;;;;;;9.93;3.73;;;23.70;53.40;;;23.49;nan;100877.44;5030942;28;21031;-68
2023/04/26 07:41:41;;;;;;;7.47;3.60;;;23.60;53.60;;;23.39;nan;100877.72;5029916;28;21218;-66
2023/04/26 07:44:10;;;;;;;5.20;3.87;;;23.50;53.80;;;23.55;nan;100884.66;5033405;28;20616;-67
2023/04/26 07:46:37;;;;;;;5.43;3.23;;;23.70;53.60;;;23.42;nan;100889.84;5025915;28;20684;-65
2023/04/26 07:49:04;;;;;;;3.77;3.30;;;23.60;53.00;;;23.73;nan;100891.22;5029958;28;20663;-66
2023/04/26 07:51:31;;;;;;;3.80;3.50;;;23.80;52.90;;;24.03;nan;100893.75;5030429;28;20640;-66
2023/04/26 07:53:58;;;;;;;2.90;2.60;;;24.10;52.90;;;24.27;nan;100888.91;5028908;28;20635;-67
2023/04/26 07:56:25;;;;;;;5.30;3.53;;;24.50;51.90;;;24.22;nan;100890.47;5026820;28;20644;-66
2023/04/26 07:58:52;;;;;;;10.77;3.73;;;24.60;51.60;;;24.08;nan;100892.22;5028386;28;20632;-68
2023/04/26 08:01:19;;;;;;;3.93;3.30;;;24.50;52.10;;;24.22;nan;100891.31;5031116;28;21223;-67
2023/04/26 08:03:47;;;;;;;2.97;2.37;;;24.60;51.70;;;23.68;nan;100890.94;5030660;28;21192;-67
2023/04/26 08:06:15;;;;;;;2.63;2.43;;;24.30;51.90;;;23.14;nan;100885.19;5029350;28;20737;-66
2023/04/26 08:08:47;;;;;;;7.57;3.70;;;23.80;52.50;;;23.26;nan;100890.84;5030587;28;20640;-67
2023/04/26 08:11:15;;;;;;;3.37;2.93;;;23.70;52.50;;;23.82;nan;100900.75;5030019;28;20755;-68
2023/04/26 08:13:42;;;;;;;4.83;4.00;;;24.30;52.00;;;24.11;nan;100896.31;5020494;28;20711;-67
2023/04/26 08:16:09;;;;;;;5.23;3.57;;;24.80;51.50;;;24.80;nan;100898.13;5030930;28;20636;-67
2023/04/26 08:18:36;;;;;;;7.30;3.60;;;25.30;51.20;;;25.51;nan;100894.19;5029355;28;20706;-67
2023/04/26 08:21:03;;;;;;;5.23;4.10;;;26.00;50.50;;;25.53;nan;100891.31;5026866;28;20675;-67
2023/04/26 08:23:35;;;;;;;5.50;3.93;;;26.20;49.80;;;26.22;nan;100891.84;5028526;28;20702;-67
2023/04/26 08:26:02;;;;;;;4.47;3.47;;;26.70;49.30;;;26.60;nan;100890.22;5031473;28;20639;-66
2023/04/26 08:28:29;;;;;;;7.03;4.07;;;27.10;48.70;;;26.88;nan;100894.28;5031271;28;20685;-68
2023/04/26 08:30:57;;;;;;;7.20;3.47;;;27.50;48.10;;;27.74;nan;100897.47;5031692;28;20656;-66
2023/04/26 08:33:24;;;;;;;4.93;3.00;;;28.40;47.20;;;28.49;nan;100899.19;5031303;28;20678;-67
2023/04/26 08:35:51;;;;;;;7.73;3.93;;;29.10;46.30;;;29.46;nan;100892.97;5021271;28;20646;-65
2023/04/26 08:38:21;;;;;;;4.40;2.83;;;30.00;45.90;;;29.84;nan;100898.88;5043181;22;20696;-69
2023/04/26 08:40:48;;;;;;;4.17;3.73;;;30.60;44.20;;;29.91;nan;100891.53;5002214;28;20627;-70
2023/04/26 08:43:16;;;;;;;4.90;3.83;;;30.70;43.60;;;29.58;nan;100891.19;5005552;28;20638;-70
2023/04/26 08:45:47;;;;;;;4.00;3.70;;;30.60;43.50;;;29.97;nan;100884.41;5007370;28;20639;-69
2023/04/26 08:48:16;;;;;;;3.67;3.33;;;30.80;42.90;;;30.59;nan;100886.50;5009270;28;20681;-69
2023/04/26 08:50:47;;;;;;;4.23;3.83;;;31.30;42.40;;;30.59;nan;100881.94;5003311;28;21004;-71
2023/04/26 08:53:16;;;;;;;3.80;3.50;;;31.30;42.30;;;30.74;nan;100870.66;4991915;28;20664;-69
2023/04/26 08:55:48;;;;;;;4.30;4.00;;;31.50;42.70;;;30.45;nan;100871.63;4983971;28;20642;-69
2023/04/26 08:58:17;;;;;;;8.63;4.30;;;31.20;42.10;;;30.02;nan;100868.41;4999599;28;21283;-73
2023/04/26 09:00:47;;;;;;;4.00;3.70;;;30.90;42.60;;;30.33;nan;100871.63;4973749;28;20631;-68
2023/04/26 09:03:14;;;;;;;5.07;4.00;;;30.90;41.60;;;31.18;nan;100874.56;4976252;28;20638;-68
2023/04/26 09:05:43;;;;;;;7.13;5.60;;;31.50;41.10;;;31.18;nan;100864.63;4983225;28;20643;-69
2023/04/26 09:08:18;;;;;;;4.40;4.00;;;31.80;40.60;;;30.92;nan;100865.19;4991893;28;20674;-67
2023/04/26 09:10:45;;;;;;;6.63;4.10;;;31.50;41.20;;;29.20;nan;100858.41;4988993;28;20627;-70
2023/04/26 09:13:13;;;;;;;4.73;4.13;;;30.10;40.60;;;28.29;nan;100859.13;4970063;28;21495;-68
2023/04/26 09:15:40;;;;;;;5.63;3.70;;;29.10;41.10;;;27.94;nan;100854.44;4993868;28;20631;-67
2023/04/26 09:18:19;;;;;;;3.90;3.37;;;28.50;41.20;;;27.30;nan;100852.72;4975413;28;20756;-67
2023/04/26 09:21:06;;;;;;;5.90;3.70;;;27.80;42.20;;;26.30;nan;100852.34;4991643;28;20654;-68
2023/04/26 09:23:34;;;;;;;7.43;3.17;;;26.90;42.70;;;26.31;nan;100855.84;5000100;28;20615;-66
2023/04/26 09:26:21;;;;;;;7.37;3.63;;;26.70;43.10;;;25.90;nan;100856.00;5010817;28;20617;-66
2023/04/26 09:28:49;;;;;;;3.50;3.20;;;26.40;43.10;;;25.60;nan;100847.53;5005482;28;21217;-69
2023/04/26 09:31:47;;;;;;;6.03;3.83;;;26.00;43.10;;;25.51;nan;100851.44;4981137;28;20635;-69
2023/04/26 09:34:15;;;;;;;10.87;4.70;;;25.80;43.80;;;25.96;nan;100850.69;4970912;28;20623;-66
2023/04/26 09:36:51;;;;;;;6.70;3.50;;;26.20;43.70;;;27.06;nan;100856.13;4986049;28;20692;-66
2023/04/26 09:39:40;;;;;;;3.20;3.00;;;27.20;42.60;;;29.24;nan;100864.97;4988889;28;20677;-69
2023/04/26 09:42:10;;;;;;;3.60;3.17;;;29.10;41.50;;;30.36;nan;100860.41;4988791;28;20630;-67
2023/04/26 09:44:38;;;;;;;8.70;3.40;;;30.50;40.70;;;30.65;nan;100848.66;4992233;28;20696;-68
2023/04/26 09:47:10;;;;;;;3.93;3.63;;;31.00;39.70;;;30.07;nan;100861.25;4987817;28;20731;-69
2023/04/26 09:49:47;;;;;;;3.77;3.27;;;30.60;40.00;;;29.18;nan;100855.91;4992047;28;20673;-70
2023/04/26 09:52:15;;;;;;;5.90;3.47;;;29.80;39.80;;;27.99;nan;100854.59;4996431;28;20629;-66
2023/04/26 09:54:48;;;;;;;4.27;2.87;;;28.70;39.60;;;26.49;nan;100846.16;5004921;28;20676;-69
2023/04/26 09:57:18;;;;;;;4.17;2.80;;;27.20;40.30;;;24.81;nan;100832.25;4979005;28;20641;-69
2023/04/26 09:59:48;;;;;;;2.97;2.67;;;25.60;41.60;;;23.82;nan;100833.31;4978814;28;20665;-69
2023/04/26 10:02:24;;;;;;;5.23;2.90;;;24.30;43.70;;;22.87;nan;100829.94;4983872;28;20630;-71
2023/04/26 10:04:55;;;;;;;5.67;2.90;;;23.30;44.10;;;21.66;nan;100840.03;4991075;28;20654;-71
2023/04/26 10:07:24;;;;;;;2.60;2.40;;;22.10;45.70;;;21.08;nan;100825.44;4990726;28;20654;-72
2023/04/26 10:09:52;;;;;;;4.63;2.87;;;21.30;47.40;;;20.41;nan;100833.91;5013676;28;21225;-68
2023/04/26 10:12:19;;;;;;;3.10;2.87;;;20.60;47.80;;;20.18;nan;100827.63;4978565;28;20627;-74
2023/04/26 10:14:47;;;;;;;5.20;3.30;;;20.10;48.20;;;20.13;nan;100823.66;5013024;28;20636;-69
2023/04/26 10:17:18;;;;;;;6.23;3.70;;;20.10;49.30;;;20.62;nan;100820.94;4996783;28;21275;-69
2023/04/26 10:19:50;;;;;;;3.67;2.57;;;20.40;49.40;;;21.54;nan;100813.88;4997512;28;20652;-71
2023/04/26 10:22:22;;;;;;;5.93;3.17;;;21.10;48.70;;;22.06;nan;100813.97;4989988;28;20638;-68
2023/04/26 10:24:53;;;;;;;6.73;3.53;;;21.70;47.70;;;21.74;nan;100818.72;5010530;28;20642;-68
2023/04/26 10:27:45;;;;;;;3.80;3.13;;;21.60;47.70;;;20.81;nan;100825.84;4985197;28;20662;-69
2023/04/26 10:30:14;;;;;;;3.33;3.03;;;20.80;48.30;;;20.36;nan;100821.16;4987947;28;20646;-68
2023/04/26 10:32:57;;;;;;;2.53;2.30;;;20.30;49.30;;;20.10;nan;100826.63;4979323;28;20684;-65
2023/04/26 10:35:29;;;;;;;2.53;2.33;;;20.00;49.10;;;19.99;nan;100821.69;5000572;28;20641;-69
2023/04/26 10:37:59;;;;;;;2.67;2.43;;;19.80;49.70;;;19.86;nan;100824.00;4988031;28;20680;-69